createdAt,value
2023-05-19T00:01:49.448Z,9.02
2023-05-19T00:04:23.179Z,8.92
2023-05-19T00:06:56.833Z,8.97
2023-05-19T00:09:30.216Z,8.87
2023-05-19T00:12:03.524Z,8.68
2023-05-19T00:14:38.353Z,8.68
2023-05-19T00:17:11.851Z,8.79
2023-05-19T00:19:45.064Z,8.59
2023-05-19T00:22:17.978Z,8.46
2023-05-19T00:24:50.774Z,8.43
2023-05-19T00:27:23.645Z,8.20
2023-05-19T00:29:57.970Z,8.11
2023-05-19T00:32:31.217Z,8.31
2023-05-19T00:35:04.332Z,8.22
2023-05-19T00:37:37.508Z,8.15
2023-05-19T00:40:11.564Z,8.01
2023-05-19T00:42:44.429Z,7.90
2023-05-19T00:45:18.954Z,7.95
2023-05-19T00:47:51.838Z,7.83
2023-05-19T00:50:25.242Z,7.87
2023-05-19T00:52:58.319Z,8.03
2023-05-19T00:55:34.403Z,8.05
2023-05-19T00:58:08.202Z,8.02
2023-05-19T01:00:43.458Z,7.92
2023-05-19T01:03:20.870Z,7.87
2023-05-19T01:05:54.006Z,7.71
2023-05-19T01:08:27.131Z,7.73
2023-05-19T01:11:00.691Z,7.75
2023-05-19T01:13:34.372Z,7.69
2023-05-19T01:16:13.676Z,7.65
2023-05-19T01:18:56.185Z,7.62
2023-05-19T01:21:58.237Z,7.32
2023-05-19T01:25:04.421Z,7.37
2023-05-19T01:28:14.820Z,7.50
2023-05-19T01:30:54.695Z,7.49
2023-05-19T01:33:29.619Z,7.25
2023-05-19T01:36:05.186Z,7.30
2023-05-19T01:38:40.126Z,7.33
2023-05-19T01:41:13.682Z,7.38
2023-05-19T01:43:46.879Z,7.13
2023-05-19T01:46:22.347Z,7.20
2023-05-19T01:48:56.065Z,7.23
2023-05-19T01:51:29.120Z,7.31
2023-05-19T01:54:01.875Z,7.42
2023-05-19T01:56:47.877Z,7.30
2023-05-19T01:59:33.750Z,7.31
2023-05-19T02:02:18.468Z,7.40
2023-05-19T02:04:58.648Z,7.46
2023-05-19T02:07:38.931Z,7.53
2023-05-19T02:10:15.651Z,7.64
2023-05-19T02:12:54.553Z,7.46
2023-05-19T02:15:35.496Z,7.70
2023-05-19T02:18:11.525Z,7.74
2023-05-19T02:20:44.989Z,7.60
2023-05-19T02:23:17.873Z,7.78
2023-05-19T02:25:50.774Z,7.84
2023-05-19T02:28:23.648Z,7.74
2023-05-19T02:30:56.534Z,7.79
2023-05-19T02:33:31.558Z,7.82
2023-05-19T02:36:04.682Z,7.74
2023-05-19T02:38:37.746Z,7.70
2023-05-19T02:41:10.720Z,7.79
2023-05-19T02:43:43.653Z,7.86
2023-05-19T02:46:16.472Z,7.75
2023-05-19T02:48:50.725Z,7.83
2023-05-19T02:51:23.659Z,7.74
2023-05-19T02:53:56.792Z,7.64
2023-05-19T02:56:29.698Z,7.62
2023-05-19T02:59:02.609Z,7.60
2023-05-19T03:01:37.996Z,7.61
2023-05-19T03:04:14.005Z,7.56
2023-05-19T03:06:46.969Z,7.62
2023-05-19T03:09:19.826Z,7.60
2023-05-19T03:11:52.668Z,7.47
2023-05-19T03:14:25.532Z,7.52
2023-05-19T03:16:59.902Z,7.48
2023-05-19T03:19:34.881Z,7.51
2023-05-19T03:22:07.723Z,7.70
2023-05-19T03:24:41.295Z,7.64
2023-05-19T03:27:14.878Z,7.63
2023-05-19T03:29:47.843Z,7.69
2023-05-19T03:32:21.053Z,7.74
2023-05-19T03:34:55.512Z,7.65
2023-05-19T03:37:28.625Z,7.63
2023-05-19T03:40:02.396Z,7.63
2023-05-19T03:42:36.092Z,7.61
2023-05-19T03:45:09.804Z,7.38
2023-05-19T03:47:42.649Z,7.61
2023-05-19T03:50:31.811Z,7.24
2023-05-19T03:53:18.748Z,7.39
2023-05-19T03:55:51.710Z,7.15
2023-05-19T03:58:24.544Z,7.38
2023-05-19T04:00:59.668Z,7.55
2023-05-19T04:03:32.557Z,7.61
2023-05-19T04:06:07.478Z,7.58
2023-05-19T04:08:40.585Z,7.29
2023-05-19T04:11:14.034Z,7.26
2023-05-19T04:13:47.214Z,7.72
2023-05-19T04:16:20.152Z,7.69
2023-05-19T04:18:53.914Z,7.86
2023-05-19T04:21:28.562Z,7.96
2023-05-19T04:24:01.795Z,7.90
2023-05-19T04:26:35.098Z,8.07
2023-05-19T04:29:08.830Z,8.16
2023-05-19T04:31:42.147Z,8.22
2023-05-19T04:34:15.205Z,8.48
2023-05-19T04:36:51.647Z,8.46
2023-05-19T04:39:29.620Z,8.70
2023-05-19T04:42:02.729Z,8.53
2023-05-19T04:44:38.087Z,8.75
2023-05-19T04:47:11.435Z,9.12
2023-05-19T04:49:44.673Z,9.05
2023-05-19T04:52:21.848Z,9.04
2023-05-19T04:54:54.902Z,9.25
2023-05-19T04:57:29.437Z,9.44
2023-05-19T05:00:03.317Z,9.48
2023-05-19T05:02:43.708Z,9.43
2023-05-19T05:05:16.813Z,9.67
2023-05-19T05:07:54.162Z,9.61
2023-05-19T05:10:28.981Z,9.70
2023-05-19T05:13:02.813Z,9.78
2023-05-19T05:15:36.644Z,9.88
2023-05-19T05:18:10.365Z,9.92
2023-05-19T05:20:44.211Z,10.08
2023-05-19T05:23:20.328Z,10.18
2023-05-19T05:25:55.268Z,10.20
2023-05-19T05:28:28.434Z,10.21
2023-05-19T05:31:01.326Z,10.56
2023-05-19T05:33:34.405Z,10.42
2023-05-19T05:36:08.111Z,10.72
2023-05-19T05:38:42.564Z,10.84
2023-05-19T05:41:16.770Z,10.89
2023-05-19T05:43:50.002Z,11.07
2023-05-19T05:46:24.386Z,10.83
2023-05-19T05:48:57.783Z,11.13
2023-05-19T05:51:32.981Z,11.12
2023-05-19T05:54:09.104Z,11.53
2023-05-19T05:56:46.812Z,11.84
2023-05-19T05:59:20.414Z,11.79
2023-05-19T06:01:53.781Z,12.02
2023-05-19T06:04:27.142Z,12.00
2023-05-19T06:07:01.900Z,11.98
2023-05-19T06:09:40.621Z,11.97
2023-05-19T06:12:15.088Z,12.26
2023-05-19T06:14:52.961Z,12.27
2023-05-19T06:17:54.779Z,12.38
2023-05-19T06:20:27.790Z,12.62
2023-05-19T06:23:02.015Z,13.08
2023-05-19T06:25:36.870Z,12.85
2023-05-19T06:28:09.709Z,12.90
2023-05-19T06:30:43.270Z,13.27
2023-05-19T06:33:29.104Z,13.16
2023-05-19T06:36:02.496Z,13.39
2023-05-19T06:38:36.294Z,13.42
2023-05-19T06:41:10.552Z,13.60
2023-05-19T06:43:43.578Z,13.75
2023-05-19T06:46:20.027Z,14.17
2023-05-19T06:48:53.287Z,14.28
2023-05-19T06:51:29.538Z,14.59
2023-05-19T06:54:03.183Z,14.48
2023-05-19T06:56:37.573Z,14.47
2023-05-19T06:59:10.884Z,14.80
2023-05-19T07:01:44.533Z,14.75
2023-05-19T07:04:17.872Z,14.85
2023-05-19T07:06:50.975Z,14.71
2023-05-19T07:09:24.655Z,15.08
2023-05-19T07:11:59.063Z,15.18
2023-05-19T07:14:31.852Z,15.38
2023-05-19T07:17:05.159Z,14.93
2023-05-19T07:19:39.282Z,14.74
2023-05-19T07:22:12.493Z,15.39
2023-05-19T07:24:45.394Z,15.28
2023-05-19T07:27:19.767Z,15.80
2023-05-19T07:29:52.671Z,15.77
2023-05-19T07:32:25.982Z,15.82
2023-05-19T07:34:58.851Z,15.88
2023-05-19T07:37:31.751Z,15.76
2023-05-19T07:40:05.132Z,16.07
2023-05-19T07:42:39.308Z,16.18
2023-05-19T07:45:12.853Z,15.64
2023-05-19T07:47:45.786Z,16.11
2023-05-19T07:50:18.719Z,16.30
2023-05-19T07:52:51.600Z,16.32
2023-05-19T07:55:24.747Z,16.52
2023-05-19T07:57:58.939Z,16.65
2023-05-19T08:00:32.456Z,17.43
2023-05-19T08:03:06.000Z,17.14
2023-05-19T08:05:39.322Z,17.26
2023-05-19T08:08:12.925Z,17.48
2023-05-19T08:10:45.885Z,17.40
2023-05-19T08:13:20.096Z,16.88
2023-05-19T08:15:55.063Z,17.37
2023-05-19T08:18:28.251Z,17.53
2023-05-19T08:21:01.755Z,17.37
2023-05-19T08:23:34.839Z,17.66
2023-05-19T08:26:08.023Z,17.55
2023-05-19T08:28:42.197Z,17.01
2023-05-19T08:31:15.095Z,17.38
2023-05-19T08:33:48.083Z,18.08
2023-05-19T08:36:22.062Z,17.77
2023-05-19T08:38:54.909Z,17.66
2023-05-19T08:41:27.936Z,17.64
2023-05-19T08:44:02.264Z,17.35
2023-05-19T08:46:36.224Z,17.19
2023-05-19T08:49:13.237Z,17.82
2023-05-19T08:51:55.955Z,18.25
2023-05-19T08:54:35.248Z,18.39
2023-05-19T08:57:10.220Z,18.74
2023-05-19T08:59:45.049Z,18.70
2023-05-19T09:02:18.927Z,18.87
2023-05-19T09:04:52.141Z,18.26
2023-05-19T09:07:26.629Z,17.69
2023-05-19T09:10:00.981Z,17.94
2023-05-19T09:12:34.811Z,18.46
2023-05-19T09:15:10.884Z,18.50
2023-05-19T09:17:44.982Z,18.08
2023-05-19T09:20:18.323Z,18.06
2023-05-19T09:22:52.668Z,17.93
2023-05-19T09:25:25.640Z,17.88
2023-05-19T09:27:58.638Z,17.14
2023-05-19T09:30:34.545Z,17.15
2023-05-19T09:33:10.030Z,17.38
2023-05-19T09:35:48.148Z,17.46
2023-05-19T09:38:21.460Z,16.62
2023-05-19T09:40:54.516Z,17.71
2023-05-19T09:43:29.628Z,17.48
2023-05-19T09:46:05.670Z,17.60
2023-05-19T09:48:38.903Z,17.69
2023-05-19T09:51:11.878Z,17.67
2023-05-19T09:53:48.010Z,18.02
2023-05-19T09:56:23.741Z,18.04
2023-05-19T09:58:56.776Z,18.02
2023-05-19T10:01:33.668Z,18.56
2023-05-19T10:04:07.002Z,17.63
2023-05-19T10:06:40.769Z,18.25
2023-05-19T10:09:14.194Z,17.67
2023-05-19T10:11:47.182Z,17.63
2023-05-19T10:14:21.236Z,18.46
2023-05-19T10:16:57.326Z,17.30
2023-05-19T10:19:30.504Z,18.60
2023-05-19T10:22:03.410Z,17.59
2023-05-19T10:24:36.304Z,17.57
2023-05-19T10:27:12.875Z,18.20
2023-05-19T10:29:51.009Z,18.11
2023-05-19T10:32:29.895Z,17.37
2023-05-19T10:35:29.424Z,18.00
2023-05-19T10:38:13.889Z,17.52
2023-05-19T10:40:58.646Z,18.16
2023-05-19T10:43:42.917Z,17.62
2023-05-19T10:46:16.655Z,18.01
2023-05-19T10:48:51.092Z,18.00
2023-05-19T10:51:31.377Z,17.92
2023-05-19T10:54:10.990Z,17.85
2023-05-19T10:56:47.782Z,17.72
2023-05-19T10:59:32.910Z,17.58
2023-05-19T11:02:06.621Z,17.58
2023-05-19T11:04:52.402Z,17.73
2023-05-19T11:07:25.810Z,17.97
2023-05-19T11:09:58.739Z,17.65
2023-05-19T11:12:42.075Z,18.08
2023-05-19T11:15:16.391Z,17.92
2023-05-19T11:17:50.255Z,18.45
2023-05-19T11:20:26.068Z,18.76
2023-05-19T11:23:05.651Z,18.60
2023-05-19T11:25:46.963Z,18.78
2023-05-19T11:28:25.665Z,18.34
2023-05-19T11:31:00.192Z,19.06
2023-05-19T11:33:33.615Z,18.79
2023-05-19T11:36:09.393Z,19.05
2023-05-19T11:38:43.571Z,18.84
2023-05-19T11:41:18.889Z,19.36
2023-05-19T11:43:53.565Z,19.72
2023-05-19T11:46:26.412Z,20.04
2023-05-19T11:48:59.410Z,19.59
2023-05-19T11:51:34.204Z,19.97
2023-05-19T11:54:07.491Z,19.67
2023-05-19T11:56:44.410Z,20.17
2023-05-19T11:59:17.281Z,20.80
2023-05-19T12:01:50.692Z,20.53
2023-05-19T12:04:23.646Z,21.35
2023-05-19T12:06:58.303Z,21.43
2023-05-19T12:09:31.371Z,21.58
2023-05-19T12:12:04.725Z,21.81
2023-05-19T12:14:38.871Z,20.35
2023-05-19T12:17:13.691Z,20.76
2023-05-19T12:19:48.935Z,21.87
2023-05-19T12:22:26.881Z,21.54
2023-05-19T12:25:12.237Z,21.50
2023-05-19T12:27:47.682Z,21.13
2023-05-19T12:30:27.844Z,21.38
2023-05-19T12:33:01.649Z,21.23
2023-05-19T12:35:40.242Z,20.83
2023-05-19T12:38:17.263Z,20.72
2023-05-19T12:40:53.899Z,21.15
2023-05-19T12:43:31.834Z,20.75
2023-05-19T12:46:13.785Z,21.08
2023-05-19T12:48:48.259Z,21.26
2023-05-19T12:51:24.375Z,20.93
2023-05-19T12:53:59.577Z,20.89
2023-05-19T12:56:53.790Z,21.27
2023-05-19T12:59:38.368Z,21.63
2023-05-19T13:02:15.744Z,21.79
2023-05-19T13:04:49.476Z,21.70
2023-05-19T13:07:23.028Z,21.62
2023-05-19T13:09:57.946Z,21.26
2023-05-19T13:12:37.951Z,21.38
2023-05-19T13:15:12.638Z,21.29
2023-05-19T13:17:46.605Z,21.73
2023-05-19T13:20:19.723Z,22.23
2023-05-19T13:22:53.572Z,21.64
2023-05-19T13:25:28.320Z,21.57
2023-05-19T13:28:04.912Z,21.96
2023-05-19T13:30:39.545Z,21.66
2023-05-19T13:33:12.663Z,22.02
2023-05-19T13:35:45.562Z,22.42
2023-05-19T13:38:18.404Z,21.96
2023-05-19T13:40:52.784Z,21.92
2023-05-19T13:43:25.633Z,22.10
2023-05-19T13:45:58.855Z,21.06
2023-05-19T13:48:31.656Z,21.43
2023-05-19T13:51:04.435Z,21.85
2023-05-19T13:53:37.509Z,22.38
2023-05-19T13:56:11.717Z,21.17
2023-05-19T13:58:44.723Z,21.16
2023-05-19T14:01:17.771Z,21.50
2023-05-19T14:03:50.789Z,22.16
2023-05-19T14:06:23.810Z,21.81
2023-05-19T14:08:56.603Z,22.13
2023-05-19T14:11:31.107Z,22.42
2023-05-19T14:14:04.093Z,23.26
2023-05-19T14:16:38.190Z,23.00
2023-05-19T14:19:11.295Z,22.75
2023-05-19T14:21:44.266Z,23.08
2023-05-19T14:24:17.062Z,23.20
2023-05-19T14:26:52.652Z,22.45
2023-05-19T14:29:25.658Z,22.40
2023-05-19T14:31:58.530Z,22.20
2023-05-19T14:34:31.440Z,22.79
2023-05-19T14:37:04.243Z,22.80
2023-05-19T14:39:37.100Z,23.08
2023-05-19T14:42:11.820Z,23.80
2023-05-19T14:44:44.796Z,23.74
2023-05-19T14:47:17.831Z,23.94
2023-05-19T14:49:51.025Z,23.52
2023-05-19T14:52:24.305Z,23.48
2023-05-19T14:54:57.212Z,23.31
2023-05-19T14:57:31.550Z,23.53
2023-05-19T15:00:04.856Z,22.84
2023-05-19T15:02:37.768Z,22.56
2023-05-19T15:05:11.720Z,23.05
2023-05-19T15:07:44.567Z,22.64
2023-05-19T15:10:17.529Z,22.33
2023-05-19T15:12:51.798Z,23.67
2023-05-19T15:15:24.528Z,23.13
2023-05-19T15:17:57.360Z,23.25
2023-05-19T15:20:30.212Z,23.22
2023-05-19T15:23:03.201Z,23.21
2023-05-19T15:25:35.992Z,23.48
2023-05-19T15:28:10.231Z,24.04
2023-05-19T15:30:43.352Z,24.26
2023-05-19T15:33:16.443Z,23.53
2023-05-19T15:35:51.746Z,22.54
2023-05-19T15:38:24.646Z,22.35
2023-05-19T15:40:57.510Z,22.80
2023-05-19T15:43:31.725Z,22.72
2023-05-19T15:46:05.262Z,23.00
2023-05-19T15:48:38.321Z,22.79
2023-05-19T15:51:11.515Z,22.42
2023-05-19T15:53:44.408Z,22.51
2023-05-19T15:56:17.518Z,22.07
2023-05-19T15:58:51.991Z,21.79
2023-05-19T16:01:25.129Z,22.04
2023-05-19T16:03:58.250Z,21.53
2023-05-19T16:06:31.737Z,21.53
2023-05-19T16:09:04.744Z,21.95
2023-05-19T16:11:37.579Z,22.02
2023-05-19T16:14:11.856Z,22.50
2023-05-19T16:16:44.860Z,22.72
2023-05-19T16:19:17.903Z,22.47
2023-05-19T16:21:50.748Z,22.25
2023-05-19T16:24:23.497Z,21.69
2023-05-19T16:26:56.508Z,21.58
2023-05-19T16:29:30.775Z,21.33
2023-05-19T16:32:03.782Z,21.66
2023-05-19T16:34:36.805Z,21.51
2023-05-19T16:37:09.627Z,21.56
2023-05-19T16:39:43.816Z,21.08
2023-05-19T16:42:16.596Z,21.60
2023-05-19T16:44:50.723Z,21.63
2023-05-19T16:47:23.816Z,21.71
2023-05-19T16:49:56.756Z,21.41
2023-05-19T16:52:29.677Z,21.63
2023-05-19T16:55:02.586Z,21.25
2023-05-19T16:57:35.481Z,20.87
2023-05-19T17:00:11.534Z,20.95
2023-05-19T17:02:44.440Z,21.06
2023-05-19T17:05:17.629Z,20.93
2023-05-19T17:07:50.635Z,20.95
2023-05-19T17:10:23.610Z,21.19
2023-05-19T17:12:56.492Z,20.61
2023-05-19T17:15:30.819Z,20.80
2023-05-19T17:18:05.618Z,20.87
2023-05-19T17:20:38.689Z,21.03
2023-05-19T17:23:11.729Z,20.50
2023-05-19T17:25:44.594Z,20.60
2023-05-19T17:28:17.638Z,20.56
2023-05-19T17:30:51.833Z,20.34
2023-05-19T17:33:24.976Z,20.18
2023-05-19T17:35:57.931Z,20.20
2023-05-19T17:38:32.204Z,19.90
2023-05-19T17:41:09.725Z,19.99
2023-05-19T17:43:43.041Z,20.10
2023-05-19T17:46:17.222Z,20.15
2023-05-19T17:48:50.186Z,20.13
2023-05-19T17:51:23.609Z,19.98
2023-05-19T17:53:57.142Z,19.76
2023-05-19T17:56:34.170Z,19.70
2023-05-19T17:59:07.417Z,19.84
2023-05-19T18:01:42.537Z,19.77
2023-05-19T18:04:16.339Z,19.78
2023-05-19T18:06:52.404Z,19.68
2023-05-19T18:09:29.017Z,19.60
2023-05-19T18:12:02.621Z,19.11
2023-05-19T18:14:35.449Z,19.12
2023-05-19T18:17:09.669Z,19.07
2023-05-19T18:19:42.467Z,19.02
2023-05-19T18:22:15.354Z,18.81
2023-05-19T18:24:48.308Z,18.94
2023-05-19T18:27:21.108Z,18.75
2023-05-19T18:29:54.018Z,18.78
2023-05-19T18:32:28.345Z,18.78
2023-05-19T18:35:01.182Z,18.64
2023-05-19T18:37:34.059Z,18.60
2023-05-19T18:40:08.960Z,18.31
2023-05-19T18:42:41.834Z,18.22
2023-05-19T18:45:15.031Z,18.18
2023-05-19T18:47:49.369Z,18.33
2023-05-19T18:50:22.579Z,18.23
2023-05-19T18:52:55.506Z,18.05
2023-05-19T18:55:28.771Z,17.97
2023-05-19T18:58:02.433Z,17.87
2023-05-19T19:00:36.513Z,17.77
2023-05-19T19:03:11.894Z,17.65
2023-05-19T19:05:44.864Z,17.71
2023-05-19T19:08:17.712Z,17.66
2023-05-19T19:10:51.779Z,17.53
2023-05-19T19:13:24.731Z,17.46
2023-05-19T19:15:57.603Z,17.58
2023-05-19T19:18:31.933Z,17.50
2023-05-19T19:21:05.752Z,17.46
2023-05-19T19:23:39.179Z,17.44
2023-05-19T19:26:14.382Z,17.25
2023-05-19T19:28:47.761Z,17.46
2023-05-19T19:31:21.165Z,17.51
2023-05-19T19:33:58.944Z,17.24
2023-05-19T19:36:33.995Z,17.19
2023-05-19T19:39:07.505Z,17.03
2023-05-19T19:41:41.096Z,17.08
2023-05-19T19:44:14.721Z,16.90
2023-05-19T19:46:47.952Z,16.89
2023-05-19T19:49:22.532Z,16.93
2023-05-19T19:51:57.273Z,16.82
2023-05-19T19:54:33.652Z,16.70
2023-05-19T19:57:07.234Z,16.76
2023-05-19T19:59:40.584Z,16.85
2023-05-19T20:02:14.176Z,16.84
2023-05-19T20:04:48.866Z,16.82
2023-05-19T20:07:23.384Z,16.72
2023-05-19T20:09:57.098Z,16.71
2023-05-19T20:12:33.892Z,16.68
2023-05-19T20:15:08.646Z,16.63
2023-05-19T20:17:41.798Z,16.53
2023-05-19T20:20:16.934Z,16.73
2023-05-19T20:22:49.892Z,16.50
2023-05-19T20:25:22.993Z,16.45
2023-05-19T20:27:56.098Z,16.43
2023-05-19T20:30:29.279Z,16.42
2023-05-19T20:33:02.636Z,16.53
2023-05-19T20:35:37.337Z,16.34
2023-05-19T20:38:10.731Z,16.24
2023-05-19T20:40:43.710Z,16.27
2023-05-19T20:43:16.582Z,16.38
2023-05-19T20:45:49.580Z,16.44
2023-05-19T20:48:22.585Z,16.27
2023-05-19T20:50:57.440Z,16.21
2023-05-19T20:53:30.509Z,16.31
2023-05-19T20:56:05.228Z,16.24
2023-05-19T20:58:38.124Z,16.10
2023-05-19T21:01:10.978Z,16.03
2023-05-19T21:03:44.090Z,16.04
2023-05-19T21:06:18.611Z,16.13
2023-05-19T21:08:51.649Z,16.05
2023-05-19T21:11:24.555Z,16.12
2023-05-19T21:13:57.462Z,16.26
2023-05-19T21:16:30.821Z,16.16
2023-05-19T21:19:03.878Z,16.30
2023-05-19T21:21:42.671Z,16.22
2023-05-19T21:24:16.191Z,16.24
2023-05-19T21:26:49.876Z,16.31
2023-05-19T21:29:22.844Z,16.10
2023-05-19T21:31:59.165Z,16.14
2023-05-19T21:34:36.459Z,16.15
2023-05-19T21:37:10.808Z,16.08
2023-05-19T21:39:43.773Z,15.87
2023-05-19T21:42:16.708Z,15.86
2023-05-19T21:44:49.572Z,15.85
2023-05-19T21:47:22.461Z,15.71
2023-05-19T21:49:55.374Z,15.86
2023-05-19T21:52:30.324Z,15.79
2023-05-19T21:55:03.314Z,15.77
2023-05-19T21:57:36.339Z,15.57
2023-05-19T22:00:13.020Z,15.53
2023-05-19T22:02:46.406Z,15.35
2023-05-19T22:05:19.663Z,15.22
2023-05-19T22:07:53.992Z,15.42
2023-05-19T22:10:26.858Z,15.33
2023-05-19T22:12:59.920Z,15.28
2023-05-19T22:15:32.752Z,15.15
2023-05-19T22:18:05.742Z,15.07
2023-05-19T22:20:38.824Z,15.03
2023-05-19T22:23:13.435Z,14.83
2023-05-19T22:25:46.357Z,14.95
2023-05-19T22:28:19.326Z,14.94
2023-05-19T22:30:52.199Z,14.82
2023-05-19T22:33:25.132Z,14.61
2023-05-19T22:35:58.281Z,14.50
2023-05-19T22:38:32.522Z,14.30
2023-05-19T22:41:05.537Z,14.31
2023-05-19T22:43:38.462Z,14.23
2023-05-19T22:46:11.369Z,14.19
2023-05-19T22:48:44.425Z,13.91
2023-05-19T22:51:17.433Z,13.93
2023-05-19T22:53:51.656Z,13.99
2023-05-19T22:56:24.735Z,14.00
2023-05-19T22:58:57.825Z,13.91
2023-05-19T23:01:30.696Z,14.13
2023-05-19T23:04:03.997Z,14.03
2023-05-19T23:06:36.993Z,14.01
2023-05-19T23:09:11.541Z,14.11
2023-05-19T23:11:44.509Z,14.07
2023-05-19T23:14:18.562Z,14.02
2023-05-19T23:16:51.533Z,14.07
2023-05-19T23:19:24.684Z,13.96
2023-05-19T23:21:57.604Z,13.85
2023-05-19T23:24:31.920Z,13.88
2023-05-19T23:27:05.309Z,13.85
2023-05-19T23:29:38.292Z,13.78
2023-05-19T23:32:11.398Z,13.79
2023-05-19T23:34:44.380Z,13.72
2023-05-19T23:37:17.255Z,13.74
2023-05-19T23:39:51.519Z,13.87
2023-05-19T23:42:24.597Z,13.85
2023-05-19T23:44:57.510Z,13.83
2023-05-19T23:47:30.828Z,13.79
2023-05-19T23:50:03.756Z,13.71
2023-05-19T23:52:36.716Z,13.65
2023-05-19T23:55:12.728Z,13.80
2023-05-19T23:57:45.628Z,13.74
